Varmdo — SMXZ — position and weather

sailwx.info

Track history (hours):
 
Tides and Currents Weather Stations Pressure Air Temp Water Temp Dewpoint Dewpoint Depression Visibility Wind Speed Wind Dir Waves Ship Positions

Varmdo

Last reported at 2014-Dec-16 08:24 UTC. Time now 2014-Dec-18 20:59 UTC.
Position N 59°20' E 018°05'.

Length 38 m; draft 2.5 m.

Type: Passenger vessel. MMSI: 265520390.

Date/timePositionNaut miles runAvg speedWind from/ knotsBaromVisibWave heightAir tempDewpointWater temp
2014-Dec-16 08:24N 59°20' E 018°05'0 0.0
2014-Dec-16 07:24N 59°20' E 018°05'0 0.0
2014-Dec-16 06:30N 59°20' E 018°05'0 0.0
2014-Dec-16 05:33N 59°20' E 018°05'0 0.0
2014-Dec-16 04:06N 59°20' E 018°05'0 0.0
2014-Dec-16 03:24N 59°20' E 018°05'0 0.0
2014-Dec-16 02:09N 59°20' E 018°05'0 0.0
2014-Dec-16 01:09N 59°20' E 018°05'0 0.0
2014-Dec-15 23:33N 59°20' E 018°05'0 0.0
2014-Dec-15 22:33N 59°20' E 018°05'0 0.0
2014-Dec-15 21:30N 59°20' E 018°05'0 0.0
2014-Dec-15 20:30N 59°20' E 018°05'0 0.0
2014-Dec-15 19:27N 59°20' E 018°05'0 0.0
2014-Dec-15 18:33N 59°20' E 018°05'0 0.0
2014-Dec-15 17:27N 59°20' E 018°05'0 0.0
2014-Dec-15 16:27N 59°20' E 018°05'0 0.0
2014-Dec-15 15:15N 59°20' E 018°05'0 0.0
2014-Dec-15 14:33N 59°20' E 018°05'0 0.0
2014-Dec-15 13:33N 59°20' E 018°05'0 0.0
2014-Dec-15 12:30N 59°20' E 018°05'0 0.0
2014-Dec-15 11:33N 59°20' E 018°05'0 0.0
2014-Dec-15 10:33N 59°20' E 018°05'0 0.0
2014-Dec-15 09:18N 59°20' E 018°05'0 0.0
2014-Dec-15 08:33N 59°20' E 018°05'0 0.1
2014-Dec-15 07:32N 59°20' E 018°05'0 0.0
2014-Dec-15 06:33N 59°20' E 018°04'0 0.0
2014-Dec-15 05:30N 59°20' E 018°05'0 0.0
2014-Dec-15 04:33N 59°20' E 018°05'0 0.0
2014-Dec-15 03:33N 59°20' E 018°05'0 0.0
2014-Dec-15 02:33N 59°20' E 018°05'0 0.0
2014-Dec-15 01:33N 59°20' E 018°05'0 0.0
2014-Dec-15 00:30N 59°20' E 018°05'0 0.0
2014-Dec-14 23:30N 59°20' E 018°05'0 0.0
2014-Dec-14 22:33N 59°20' E 018°05'0 0.0
2014-Dec-14 21:33N 59°20' E 018°05'0 0.0
2014-Dec-14 20:33N 59°20' E 018°05'0 0.0
2014-Dec-14 19:27N 59°20' E 018°05'3 3.8
2014-Dec-14 18:34N 59°20' E 018°11'2 0.3
2014-Dec-14 09:33N 59°21' E 018°14'5 4.5
2014-Dec-14 08:24N 59°20' E 018°05'0 0.0
2014-Dec-14 07:24N 59°20' E 018°05'0 0.0
2014-Dec-14 06:33N 59°20' E 018°05'0 0.0
2014-Dec-14 05:30N 59°20' E 018°05'0 0.0
2014-Dec-14 04:24N 59°20' E 018°05'0 0.0
2014-Dec-14 03:21N 59°20' E 018°05'0 0.0
2014-Dec-14 02:33N 59°20' E 018°05'0 0.0
2014-Dec-14 01:33N 59°20' E 018°05'0 0.0
2014-Dec-14 00:33N 59°20' E 018°05'0 0.0
2014-Dec-13 23:33N 59°20' E 018°05'0 0.0
2014-Dec-13 22:30N 59°20' E 018°05'0 0.0
2014-Dec-13 21:33N 59°20' E 018°05'0 0.0
2014-Dec-13 20:27N 59°20' E 018°05'6 6.8
2014-Dec-13 19:33N 59°22' E 018°16'1 0.1
2014-Dec-13 13:32N 59°21' E 018°14'5 5.4
2014-Dec-13 12:33N 59°20' E 018°04'0 0.0
2014-Dec-13 11:24N 59°20' E 018°04'0 0.0
2014-Dec-13 10:30N 59°20' E 018°04'8 8.3
2014-Dec-13 09:33N 59°23' E 018°19'3 0.2
2014-Dec-12 16:28N 59°21' E 018°15'5 5.6
2014-Dec-12 15:32N 59°20' E 018°04'0 0.0
2014-Dec-12 14:29N 59°20' E 018°04'6 6.5
2014-Dec-12 13:34N 59°22' E 018°16'3 0.6
2014-Dec-12 08:12N 59°24' E 018°21'711.1
2014-Dec-12 07:33N 59°19' E 018°09'0 0.4
2014-Dec-12 06:34N 59°19' E 018°10'8 0.6
2014-Dec-11 18:21N 59°24' E 018°22'1 1.3
2014-Dec-11 17:28N 59°23' E 018°20'9 9.8
2014-Dec-11 16:33N 59°19' E 018°05'0 0.3
2014-Dec-11 15:28N 59°20' E 018°05'0 0.0
2014-Dec-11 14:31N 59°20' E 018°05'0 0.0
2014-Dec-11 13:31N 59°20' E 018°05'0 0.0
2014-Dec-11 12:31N 59°20' E 018°05'0 0.0
2014-Dec-11 11:31N 59°20' E 018°05'0 0.0
2014-Dec-11 10:31N 59°20' E 018°05'0 0.0
2014-Dec-11 09:31N 59°20' E 018°05'0 0.0
2014-Dec-11 08:31N 59°20' E 018°05'0 0.0
2014-Dec-11 07:31N 59°20' E 018°05'3 3.4
2014-Dec-11 06:33N 59°20' E 018°11'7 7.2
2014-Dec-11 05:33N 59°24' E 018°22'1 0.1
2014-Dec-10 17:26N 59°23' E 018°20'910.2
2014-Dec-10 16:33N 59°19' E 018°05'0 0.3
2014-Dec-10 15:27N 59°20' E 018°05'0 0.0
2014-Dec-10 14:30N 59°20' E 018°05'0 0.0
2014-Dec-10 13:27N 59°20' E 018°05'0 0.0
2014-Dec-10 12:27N 59°20' E 018°05'0 0.0
2014-Dec-10 11:27N 59°20' E 018°05'0 0.0
2014-Dec-10 10:27N 59°20' E 018°05'0 0.0
2014-Dec-10 09:33N 59°20' E 018°05'0 0.0
2014-Dec-10 08:30N 59°20' E 018°05'0 0.0
2014-Dec-10 07:30N 59°20' E 018°05'3 3.7
2014-Dec-10 06:33N 59°20' E 018°11'6 0.4
2014-Dec-09 17:29N 59°23' E 018°20'9 9.4
2014-Dec-09 16:33N 59°19' E 018°05'0 0.3
2014-Dec-09 15:24N 59°20' E 018°05'0 0.0
2014-Dec-09 14:24N 59°20' E 018°05'0 0.0
2014-Dec-09 13:33N 59°20' E 018°05'0 0.0
2014-Dec-09 12:33N 59°20' E 018°05'0 0.0
2014-Dec-09 11:33N 59°20' E 018°05'0 0.0
2014-Dec-09 10:33N 59°20' E 018°05'0 0.0
2014-Dec-09 09:33N 59°20' E 018°05'0 0.0
2014-Dec-09 08:30N 59°20' E 018°05'0 0.0
2014-Dec-09 07:30N 59°20' E 018°05'3 2.9
2014-Dec-09 06:33N 59°19' E 018°10'8 7.9
2014-Dec-09 05:33N 59°24' E 018°22'1 0.0
2014-Dec-08 18:19N 59°24' E 018°23'2 2.0
2014-Dec-08 17:31N 59°23' E 018°20'9 9.1
2014-Dec-08 16:34N 59°19' E 018°05'0 0.3
2014-Dec-08 15:31N 59°20' E 018°05'0 0.0
2014-Dec-08 14:31N 59°20' E 018°05'0 0.0
2014-Dec-08 13:25N 59°20' E 018°05'0 0.0
2014-Dec-08 12:31N 59°20' E 018°05'0 0.0
2014-Dec-08 11:31N 59°20' E 018°05'0 0.0
2014-Dec-08 10:31N 59°20' E 018°05'0 0.0
2014-Dec-08 09:31N 59°20' E 018°05'0 0.0
2014-Dec-08 08:28N 59°20' E 018°05'0 0.0
2014-Dec-08 07:31N 59°20' E 018°05'3 2.9
2014-Dec-08 06:34N 59°19' E 018°10'8 7.8
2014-Dec-08 05:33N 59°24' E 018°22'5 0.5
2014-Dec-07 20:33N 59°22' E 018°14'5 5.2
2014-Dec-07 19:31N 59°20' E 018°05'4 4.3
2014-Dec-07 18:33N 59°20' E 018°13'1 0.1
2014-Dec-07 09:31N 59°21' E 018°15'5 5.1
2014-Dec-07 08:29N 59°20' E 018°05'0 0.0
2014-Dec-07 07:29N 59°20' E 018°05'0 0.0
2014-Dec-07 06:32N 59°20' E 018°05'0 0.0
2014-Dec-07 05:29N 59°20' E 018°05'0 0.0
2014-Dec-07 04:32N 59°20' E 018°05'0 0.0
2014-Dec-07 03:32N 59°20' E 018°05'0 0.0
2014-Dec-07 02:32N 59°20' E 018°05'0 0.0
2014-Dec-07 01:32N 59°20' E 018°05'0 0.0
2014-Dec-07 00:32N 59°20' E 018°05'0 0.0
2014-Dec-06 23:32N 59°20' E 018°05'0 0.0
2014-Dec-06 22:32N 59°20' E 018°05'0 0.0
2014-Dec-06 21:32N 59°20' E 018°05'0 0.0
2014-Dec-06 20:32N 59°20' E 018°05'6 5.9
2014-Dec-06 19:33N 59°22' E 018°15'0 0.0
2014-Dec-06 13:33N 59°22' E 018°16'6 6.0
2014-Dec-06 12:33N 59°20' E 018°05'0 0.0
2014-Dec-06 11:27N 59°20' E 018°05'0 0.0
2014-Dec-06 10:30N 59°20' E 018°05'8 8.1
2014-Dec-06 09:28N 59°23' E 018°20'  
Track history (hours):
 
Tides and Currents Weather Stations Pressure Air Temp Water Temp Dewpoint Dewpoint Depression Visibility Wind Speed Wind Dir Waves Ship Positions

Varmdo

Last reported at 2014-Dec-16 08:24 UTC. Time now 2014-Dec-18 20:59 UTC.
Position N 59°20' E 018°05'.

Length 38 m; draft 2.5 m.

Type: Passenger vessel. MMSI: 265520390.

Date/timePositionNaut miles runAvg speedWind from/ knotsBaromVisibWave heightAir tempDewpointWater temp
2014-Dec-16 08:24N 59°20' E 018°05'0 0.0
2014-Dec-16 07:24N 59°20' E 018°05'0 0.0
2014-Dec-16 06:30N 59°20' E 018°05'0 0.0
2014-Dec-16 05:33N 59°20' E 018°05'0 0.0
2014-Dec-16 04:06N 59°20' E 018°05'0 0.0
2014-Dec-16 03:24N 59°20' E 018°05'0 0.0
2014-Dec-16 02:09N 59°20' E 018°05'0 0.0
2014-Dec-16 01:09N 59°20' E 018°05'0 0.0
2014-Dec-15 23:33N 59°20' E 018°05'0 0.0
2014-Dec-15 22:33N 59°20' E 018°05'0 0.0
2014-Dec-15 21:30N 59°20' E 018°05'0 0.0
2014-Dec-15 20:30N 59°20' E 018°05'0 0.0
2014-Dec-15 19:27N 59°20' E 018°05'0 0.0
2014-Dec-15 18:33N 59°20' E 018°05'0 0.0
2014-Dec-15 17:27N 59°20' E 018°05'0 0.0
2014-Dec-15 16:27N 59°20' E 018°05'0 0.0
2014-Dec-15 15:15N 59°20' E 018°05'0 0.0
2014-Dec-15 14:33N 59°20' E 018°05'0 0.0
2014-Dec-15 13:33N 59°20' E 018°05'0 0.0
2014-Dec-15 12:30N 59°20' E 018°05'0 0.0
2014-Dec-15 11:33N 59°20' E 018°05'0 0.0
2014-Dec-15 10:33N 59°20' E 018°05'0 0.0
2014-Dec-15 09:18N 59°20' E 018°05'0 0.0
2014-Dec-15 08:33N 59°20' E 018°05'0 0.1
2014-Dec-15 07:32N 59°20' E 018°05'0 0.0
2014-Dec-15 06:33N 59°20' E 018°04'0 0.0
2014-Dec-15 05:30N 59°20' E 018°05'0 0.0
2014-Dec-15 04:33N 59°20' E 018°05'0 0.0
2014-Dec-15 03:33N 59°20' E 018°05'0 0.0
2014-Dec-15 02:33N 59°20' E 018°05'0 0.0
2014-Dec-15 01:33N 59°20' E 018°05'0 0.0
2014-Dec-15 00:30N 59°20' E 018°05'0 0.0
2014-Dec-14 23:30N 59°20' E 018°05'0 0.0
2014-Dec-14 22:33N 59°20' E 018°05'0 0.0
2014-Dec-14 21:33N 59°20' E 018°05'0 0.0
2014-Dec-14 20:33N 59°20' E 018°05'0 0.0
2014-Dec-14 19:27N 59°20' E 018°05'3 3.8
2014-Dec-14 18:34N 59°20' E 018°11'2 0.3
2014-Dec-14 09:33N 59°21' E 018°14'5 4.5
2014-Dec-14 08:24N 59°20' E 018°05'0 0.0
2014-Dec-14 07:24N 59°20' E 018°05'0 0.0
2014-Dec-14 06:33N 59°20' E 018°05'0 0.0
2014-Dec-14 05:30N 59°20' E 018°05'0 0.0
2014-Dec-14 04:24N 59°20' E 018°05'0 0.0
2014-Dec-14 03:21N 59°20' E 018°05'0 0.0
2014-Dec-14 02:33N 59°20' E 018°05'0 0.0
2014-Dec-14 01:33N 59°20' E 018°05'0 0.0
2014-Dec-14 00:33N 59°20' E 018°05'0 0.0
2014-Dec-13 23:33N 59°20' E 018°05'0 0.0
2014-Dec-13 22:30N 59°20' E 018°05'0 0.0
2014-Dec-13 21:33N 59°20' E 018°05'0 0.0
2014-Dec-13 20:27N 59°20' E 018°05'6 6.8
2014-Dec-13 19:33N 59°22' E 018°16'1 0.1
2014-Dec-13 13:32N 59°21' E 018°14'5 5.4
2014-Dec-13 12:33N 59°20' E 018°04'0 0.0
2014-Dec-13 11:24N 59°20' E 018°04'0 0.0
2014-Dec-13 10:30N 59°20' E 018°04'8 8.3
2014-Dec-13 09:33N 59°23' E 018°19'3 0.2
2014-Dec-12 16:28N 59°21' E 018°15'5 5.6
2014-Dec-12 15:32N 59°20' E 018°04'0 0.0
2014-Dec-12 14:29N 59°20' E 018°04'6 6.5
2014-Dec-12 13:34N 59°22' E 018°16'3 0.6
2014-Dec-12 08:12N 59°24' E 018°21'711.1
2014-Dec-12 07:33N 59°19' E 018°09'0 0.4
2014-Dec-12 06:34N 59°19' E 018°10'8 0.6
2014-Dec-11 18:21N 59°24' E 018°22'1 1.3
2014-Dec-11 17:28N 59°23' E 018°20'9 9.8
2014-Dec-11 16:33N 59°19' E 018°05'0 0.3
2014-Dec-11 15:28N 59°20' E 018°05'0 0.0
2014-Dec-11 14:31N 59°20' E 018°05'0 0.0
2014-Dec-11 13:31N 59°20' E 018°05'0 0.0
2014-Dec-11 12:31N 59°20' E 018°05'0 0.0
2014-Dec-11 11:31N 59°20' E 018°05'0 0.0
2014-Dec-11 10:31N 59°20' E 018°05'0 0.0
2014-Dec-11 09:31N 59°20' E 018°05'0 0.0
2014-Dec-11 08:31N 59°20' E 018°05'0 0.0
2014-Dec-11 07:31N 59°20' E 018°05'3 3.4
2014-Dec-11 06:33N 59°20' E 018°11'7 7.2
2014-Dec-11 05:33N 59°24' E 018°22'1 0.1
2014-Dec-10 17:26N 59°23' E 018°20'910.2
2014-Dec-10 16:33N 59°19' E 018°05'0 0.3
2014-Dec-10 15:27N 59°20' E 018°05'0 0.0
2014-Dec-10 14:30N 59°20' E 018°05'0 0.0
2014-Dec-10 13:27N 59°20' E 018°05'0 0.0
2014-Dec-10 12:27N 59°20' E 018°05'0 0.0
2014-Dec-10 11:27N 59°20' E 018°05'0 0.0
2014-Dec-10 10:27N 59°20' E 018°05'0 0.0
2014-Dec-10 09:33N 59°20' E 018°05'0 0.0
2014-Dec-10 08:30N 59°20' E 018°05'0 0.0
2014-Dec-10 07:30N 59°20' E 018°05'3 3.7
2014-Dec-10 06:33N 59°20' E 018°11'6 0.4
2014-Dec-09 17:29N 59°23' E 018°20'9 9.4
2014-Dec-09 16:33N 59°19' E 018°05'0 0.3
2014-Dec-09 15:24N 59°20' E 018°05'0 0.0
2014-Dec-09 14:24N 59°20' E 018°05'0 0.0
2014-Dec-09 13:33N 59°20' E 018°05'0 0.0
2014-Dec-09 12:33N 59°20' E 018°05'0 0.0
2014-Dec-09 11:33N 59°20' E 018°05'0 0.0
2014-Dec-09 10:33N 59°20' E 018°05'0 0.0
2014-Dec-09 09:33N 59°20' E 018°05'0 0.0
2014-Dec-09 08:30N 59°20' E 018°05'0 0.0
2014-Dec-09 07:30N 59°20' E 018°05'3 2.9
2014-Dec-09 06:33N 59°19' E 018°10'8 7.9
2014-Dec-09 05:33N 59°24' E 018°22'1 0.0
2014-Dec-08 18:19N 59°24' E 018°23'2 2.0
2014-Dec-08 17:31N 59°23' E 018°20'9 9.1
2014-Dec-08 16:34N 59°19' E 018°05'0 0.3
2014-Dec-08 15:31N 59°20' E 018°05'0 0.0
2014-Dec-08 14:31N 59°20' E 018°05'0 0.0
2014-Dec-08 13:25N 59°20' E 018°05'0 0.0
2014-Dec-08 12:31N 59°20' E 018°05'0 0.0
2014-Dec-08 11:31N 59°20' E 018°05'0 0.0
2014-Dec-08 10:31N 59°20' E 018°05'0 0.0
2014-Dec-08 09:31N 59°20' E 018°05'0 0.0
2014-Dec-08 08:28N 59°20' E 018°05'0 0.0
2014-Dec-08 07:31N 59°20' E 018°05'3 2.9
2014-Dec-08 06:34N 59°19' E 018°10'8 7.8
2014-Dec-08 05:33N 59°24' E 018°22'5 0.5
2014-Dec-07 20:33N 59°22' E 018°14'5 5.2
2014-Dec-07 19:31N 59°20' E 018°05'4 4.3
2014-Dec-07 18:33N 59°20' E 018°13'1 0.1
2014-Dec-07 09:31N 59°21' E 018°15'5 5.1
2014-Dec-07 08:29N 59°20' E 018°05'0 0.0
2014-Dec-07 07:29N 59°20' E 018°05'0 0.0
2014-Dec-07 06:32N 59°20' E 018°05'0 0.0
2014-Dec-07 05:29N 59°20' E 018°05'0 0.0
2014-Dec-07 04:32N 59°20' E 018°05'0 0.0
2014-Dec-07 03:32N 59°20' E 018°05'0 0.0
2014-Dec-07 02:32N 59°20' E 018°05'0 0.0
2014-Dec-07 01:32N 59°20' E 018°05'0 0.0
2014-Dec-07 00:32N 59°20' E 018°05'0 0.0
2014-Dec-06 23:32N 59°20' E 018°05'0 0.0
2014-Dec-06 22:32N 59°20' E 018°05'0 0.0
2014-Dec-06 21:32N 59°20' E 018°05'0 0.0
2014-Dec-06 20:32N 59°20' E 018°05'6 5.9
2014-Dec-06 19:33N 59°22' E 018°15'0 0.0
2014-Dec-06 13:33N 59°22' E 018°16'6 6.0
2014-Dec-06 12:33N 59°20' E 018°05'0 0.0
2014-Dec-06 11:27N 59°20' E 018°05'0 0.0
2014-Dec-06 10:30N 59°20' E 018°05'8 8.1
2014-Dec-06 09:28N 59°23' E 018°20'  

Dump ship's entire track history